sensor_id;sensor_type;location;lat;lon;timestamp;pressure;altitude;pressure_sealevel;temperature;humidity
56040;BME280;43937;41.366;2.072;2023-08-08T00:01:31;101070.53;;;26.86;61.42
56040;BME280;43937;41.366;2.072;2023-08-08T00:03:56;101062.72;;;26.88;61.24
56040;BME280;43937;41.366;2.072;2023-08-08T00:06:22;101065.53;;;26.88;60.62
56040;BME280;43937;41.366;2.072;2023-08-08T00:08:47;101048.69;;;26.78;60.31
56040;BME280;43937;41.366;2.072;2023-08-08T00:11:13;101071.41;;;26.92;60.60
56040;BME280;43937;41.366;2.072;2023-08-08T00:13:38;101068.19;;;26.73;60.72
56040;BME280;43937;41.366;2.072;2023-08-08T00:16:04;101042.88;;;26.53;61.13
56040;BME280;43937;41.366;2.072;2023-08-08T00:18:33;101058.47;;;26.48;61.54
56040;BME280;43937;41.366;2.072;2023-08-08T00:20:58;101059.56;;;26.47;61.68
56040;BME280;43937;41.366;2.072;2023-08-08T00:23:24;101050.03;;;26.43;61.48
56040;BME280;43937;41.366;2.072;2023-08-08T00:25:49;101053.47;;;26.50;62.00
56040;BME280;43937;41.366;2.072;2023-08-08T00:28:17;101026.81;;;26.38;62.17
56040;BME280;43937;41.366;2.072;2023-08-08T00:30:43;101047.72;;;26.62;61.87
56040;BME280;43937;41.366;2.072;2023-08-08T00:33:08;101049.06;;;26.55;62.39
56040;BME280;43937;41.366;2.072;2023-08-08T00:35:34;101037.75;;;26.44;61.92
56040;BME280;43937;41.366;2.072;2023-08-08T00:37:59;101041.47;;;26.50;61.71
56040;BME280;43937;41.366;2.072;2023-08-08T00:40:25;101031.63;;;26.42;62.08
56040;BME280;43937;41.366;2.072;2023-08-08T00:42:50;101042.19;;;26.40;62.53
56040;BME280;43937;41.366;2.072;2023-08-08T00:45:16;101029.03;;;26.36;62.12
56040;BME280;43937;41.366;2.072;2023-08-08T00:47:42;101017.00;;;26.35;62.10
56040;BME280;43937;41.366;2.072;2023-08-08T00:50:08;101020.09;;;26.07;62.31
56040;BME280;43937;41.366;2.072;2023-08-08T00:52:35;101038.63;;;26.18;62.30
56040;BME280;43937;41.366;2.072;2023-08-08T00:55:01;100944.09;;;25.67;62.28
56040;BME280;43937;41.366;2.072;2023-08-08T00:57:26;100995.94;;;25.90;62.58
56040;BME280;43937;41.366;2.072;2023-08-08T00:59:52;101011.63;;;25.96;62.69
56040;BME280;43937;41.366;2.072;2023-08-08T01:02:17;101031.84;;;26.09;63.09
56040;BME280;43937;41.366;2.072;2023-08-08T01:04:43;101027.41;;;26.13;63.19
56040;BME280;43937;41.366;2.072;2023-08-08T01:12:11;101004.47;;;26.06;62.74
56040;BME280;43937;41.366;2.072;2023-08-08T01:14:38;101003.84;;;25.76;63.26
56040;BME280;43937;41.366;2.072;2023-08-08T01:17:05;100996.06;;;25.78;63.22
56040;BME280;43937;41.366;2.072;2023-08-08T01:19:31;101017.41;;;25.90;63.50
56040;BME280;43937;41.366;2.072;2023-08-08T01:22:01;101021.34;;;25.72;63.89
56040;BME280;43937;41.366;2.072;2023-08-08T01:24:31;100997.94;;;25.73;63.47
56040;BME280;43937;41.366;2.072;2023-08-08T01:26:59;100973.53;;;25.58;63.68
56040;BME280;43937;41.366;2.072;2023-08-08T01:29:25;101016.09;;;25.97;63.20
56040;BME280;43937;41.366;2.072;2023-08-08T01:31:51;100995.56;;;25.81;63.39
56040;BME280;43937;41.366;2.072;2023-08-08T01:34:16;101003.22;;;25.91;63.32
56040;BME280;43937;41.366;2.072;2023-08-08T01:37:24;101008.66;;;25.81;63.69
56040;BME280;43937;41.366;2.072;2023-08-08T01:39:42;100983.44;;;25.71;64.05
56040;BME280;43937;41.366;2.072;2023-08-08T01:42:10;100995.31;;;25.83;63.93
56040;BME280;43937;41.366;2.072;2023-08-08T01:44:36;100997.34;;;25.93;63.48
56040;BME280;43937;41.366;2.072;2023-08-08T01:47:51;100977.09;;;25.80;63.54
56040;BME280;43937;41.366;2.072;2023-08-08T01:50:18;100968.00;;;25.85;63.29
56040;BME280;43937;41.366;2.072;2023-08-08T01:52:44;100980.97;;;25.96;62.83
56040;BME280;43937;41.366;2.072;2023-08-08T01:55:10;100996.78;;;25.91;63.78
56040;BME280;43937;41.366;2.072;2023-08-08T01:57:35;100995.88;;;25.85;63.94
56040;BME280;43937;41.366;2.072;2023-08-08T02:00:01;100965.31;;;25.46;64.73
56040;BME280;43937;41.366;2.072;2023-08-08T02:02:29;101000.09;;;25.88;64.10
56040;BME280;43937;41.366;2.072;2023-08-08T02:04:55;101004.84;;;25.87;63.98
56040;BME280;43937;41.366;2.072;2023-08-08T02:07:20;101000.34;;;25.86;63.94
56040;BME280;43937;41.366;2.072;2023-08-08T02:09:45;100980.69;;;25.76;63.79
56040;BME280;43937;41.366;2.072;2023-08-08T02:12:11;100978.75;;;25.76;64.00
56040;BME280;43937;41.366;2.072;2023-08-08T02:14:37;100963.13;;;25.75;63.89
56040;BME280;43937;41.366;2.072;2023-08-08T02:17:02;100979.69;;;25.82;63.97
56040;BME280;43937;41.366;2.072;2023-08-08T02:19:28;100981.84;;;25.80;64.54
56040;BME280;43937;41.366;2.072;2023-08-08T02:21:54;100981.84;;;25.80;64.12
56040;BME280;43937;41.366;2.072;2023-08-08T02:24:20;100985.69;;;25.74;65.03
56040;BME280;43937;41.366;2.072;2023-08-08T02:26:45;100973.31;;;25.65;64.98
56040;BME280;43937;41.366;2.072;2023-08-08T02:29:11;100971.97;;;25.67;64.54
56040;BME280;43937;41.366;2.072;2023-08-08T02:31:36;100949.69;;;25.45;65.06
56040;BME280;43937;41.366;2.072;2023-08-08T02:34:02;100968.25;;;25.62;64.74
56040;BME280;43937;41.366;2.072;2023-08-08T02:36:27;100977.25;;;25.69;64.88
56040;BME280;43937;41.366;2.072;2023-08-08T02:38:52;100971.44;;;25.70;64.72
56040;BME280;43937;41.366;2.072;2023-08-08T02:41:19;100965.66;;;25.77;64.95
56040;BME280;43937;41.366;2.072;2023-08-08T02:45:59;100954.19;;;25.73;64.84
56040;BME280;43937;41.366;2.072;2023-08-08T02:48:24;100930.34;;;25.61;64.08
56040;BME280;43937;41.366;2.072;2023-08-08T02:50:50;100954.94;;;25.69;64.54
56040;BME280;43937;41.366;2.072;2023-08-08T02:53:15;100928.03;;;25.52;65.04
56040;BME280;43937;41.366;2.072;2023-08-08T02:55:40;100946.50;;;25.58;64.84
56040;BME280;43937;41.366;2.072;2023-08-08T02:58:06;100949.88;;;25.61;65.32
56040;BME280;43937;41.366;2.072;2023-08-08T03:00:31;100958.16;;;25.55;66.02
56040;BME280;43937;41.366;2.072;2023-08-08T03:02:57;100953.13;;;25.52;65.52
56040;BME280;43937;41.366;2.072;2023-08-08T03:07:07;100948.91;;;25.50;66.23
56040;BME280;43937;41.366;2.072;2023-08-08T03:09:32;100947.75;;;25.46;66.10
56040;BME280;43937;41.366;2.072;2023-08-08T03:11:58;100938.56;;;25.45;66.20
56040;BME280;43937;41.366;2.072;2023-08-08T03:14:23;100954.91;;;25.42;66.68
56040;BME280;43937;41.366;2.072;2023-08-08T03:16:48;100936.22;;;25.37;65.75
56040;BME280;43937;41.366;2.072;2023-08-08T03:19:14;100929.41;;;25.28;66.30
56040;BME280;43937;41.366;2.072;2023-08-08T03:21:39;100956.25;;;25.34;66.43
56040;BME280;43937;41.366;2.072;2023-08-08T03:24:39;100934.16;;;25.27;66.35
56040;BME280;43937;41.366;2.072;2023-08-08T03:27:05;100953.00;;;25.42;66.31
56040;BME280;43937;41.366;2.072;2023-08-08T03:29:30;100931.16;;;25.12;66.75
56040;BME280;43937;41.366;2.072;2023-08-08T03:31:55;100953.44;;;25.12;67.35
56040;BME280;43937;41.366;2.072;2023-08-08T03:34:21;100948.41;;;24.92;67.89
56040;BME280;43937;41.366;2.072;2023-08-08T03:36:46;100950.69;;;24.95;67.96
56040;BME280;43937;41.366;2.072;2023-08-08T03:39:12;100947.38;;;24.98;67.81
56040;BME280;43937;41.366;2.072;2023-08-08T03:41:37;100951.00;;;24.99;68.11
56040;BME280;43937;41.366;2.072;2023-08-08T03:44:03;100944.28;;;24.95;68.42
56040;BME280;43937;41.366;2.072;2023-08-08T03:46:29;100942.00;;;24.91;68.44
56040;BME280;43937;41.366;2.072;2023-08-08T03:48:54;100922.09;;;24.83;68.95
56040;BME280;43937;41.366;2.072;2023-08-08T03:51:30;100915.59;;;24.94;68.22
56040;BME280;43937;41.366;2.072;2023-08-08T03:53:56;100941.56;;;25.00;68.88
56040;BME280;43937;41.366;2.072;2023-08-08T03:56:21;100942.44;;;25.22;67.96
56040;BME280;43937;41.366;2.072;2023-08-08T03:58:46;100926.41;;;25.12;67.72
56040;BME280;43937;41.366;2.072;2023-08-08T04:01:12;100940.97;;;25.15;67.67
56040;BME280;43937;41.366;2.072;2023-08-08T04:03:37;100890.25;;;24.74;68.37
56040;BME280;43937;41.366;2.072;2023-08-08T04:06:03;100930.59;;;24.93;68.89
56040;BME280;43937;41.366;2.072;2023-08-08T04:08:28;100935.72;;;25.01;68.14
56040;BME280;43937;41.366;2.072;2023-08-08T04:10:54;100939.72;;;24.88;69.16
56040;BME280;43937;41.366;2.072;2023-08-08T04:13:20;100934.09;;;24.83;69.30
56040;BME280;43937;41.366;2.072;2023-08-08T04:15:45;100926.66;;;24.89;69.11
56040;BME280;43937;41.366;2.072;2023-08-08T04:18:11;100938.78;;;25.00;69.59
56040;BME280;43937;41.366;2.072;2023-08-08T04:20:36;100935.59;;;24.91;69.68
56040;BME280;43937;41.366;2.072;2023-08-08T04:23:02;100945.44;;;24.99;68.91
56040;BME280;43937;41.366;2.072;2023-08-08T04:25:28;100937.19;;;24.87;69.86
56040;BME280;43937;41.366;2.072;2023-08-08T04:27:54;100914.19;;;24.75;69.19
56040;BME280;43937;41.366;2.072;2023-08-08T04:30:19;100939.94;;;24.82;69.20
56040;BME280;43937;41.366;2.072;2023-08-08T04:32:45;100941.50;;;24.78;69.45
56040;BME280;43937;41.366;2.072;2023-08-08T04:35:10;100955.72;;;24.76;69.18
56040;BME280;43937;41.366;2.072;2023-08-08T04:37:36;100944.28;;;24.95;68.70
56040;BME280;43937;41.366;2.072;2023-08-08T04:40:01;100954.75;;;24.87;69.42
56040;BME280;43937;41.366;2.072;2023-08-08T04:42:27;100932.31;;;24.77;68.97
56040;BME280;43937;41.366;2.072;2023-08-08T04:44:53;100957.91;;;24.74;69.49
56040;BME280;43937;41.366;2.072;2023-08-08T04:47:18;100957.91;;;24.74;69.34
56040;BME280;43937;41.366;2.072;2023-08-08T04:49:44;100941.66;;;24.49;69.63
56040;BME280;43937;41.366;2.072;2023-08-08T04:52:09;100946.38;;;24.49;69.59
56040;BME280;43937;41.366;2.072;2023-08-08T04:54:34;100960.69;;;24.74;69.56
56040;BME280;43937;41.366;2.072;2023-08-08T04:57:00;100962.81;;;24.67;69.48
56040;BME280;43937;41.366;2.072;2023-08-08T04:59:25;100923.66;;;24.57;68.81
56040;BME280;43937;41.366;2.072;2023-08-08T05:01:51;100942.63;;;24.77;68.60
56040;BME280;43937;41.366;2.072;2023-08-08T05:04:17;100945.41;;;24.77;69.13
56040;BME280;43937;41.366;2.072;2023-08-08T05:06:43;100960.06;;;24.89;69.04
56040;BME280;43937;41.366;2.072;2023-08-08T05:09:08;100959.41;;;24.82;69.02
56040;BME280;43937;41.366;2.072;2023-08-08T05:11:35;100957.59;;;24.92;68.59
56040;BME280;43937;41.366;2.072;2023-08-08T05:14:01;100958.13;;;24.89;68.85
56040;BME280;43937;41.366;2.072;2023-08-08T05:16:26;100966.28;;;25.13;68.02
56040;BME280;43937;41.366;2.072;2023-08-08T05:18:52;100968.41;;;25.28;66.89
56040;BME280;43937;41.366;2.072;2023-08-08T05:21:17;100964.09;;;25.15;66.72
56040;BME280;43937;41.366;2.072;2023-08-08T05:23:42;100960.00;;;25.23;67.16
56040;BME280;43937;41.366;2.072;2023-08-08T05:26:08;100944.72;;;25.25;66.80
56040;BME280;43937;41.366;2.072;2023-08-08T05:28:34;100974.88;;;25.55;65.89
56040;BME280;43937;41.366;2.072;2023-08-08T05:30:59;100968.53;;;25.82;64.75
56040;BME280;43937;41.366;2.072;2023-08-08T05:33:25;100971.16;;;25.94;63.46
56040;BME280;43937;41.366;2.072;2023-08-08T05:35:50;100949.69;;;25.94;63.51
56040;BME280;43937;41.366;2.072;2023-08-08T05:39:37;100959.47;;;27.04;60.41
56040;BME280;43937;41.366;2.072;2023-08-08T05:42:02;100962.69;;;28.57;55.15
56040;BME280;43937;41.366;2.072;2023-08-08T05:44:28;100976.22;;;29.95;51.36
56040;BME280;43937;41.366;2.072;2023-08-08T05:46:53;100970.66;;;30.64;48.83
56040;BME280;43937;41.366;2.072;2023-08-08T05:49:19;100960.38;;;30.49;48.66
56040;BME280;43937;41.366;2.072;2023-08-08T05:51:44;100990.38;;;31.17;47.77
56040;BME280;43937;41.366;2.072;2023-08-08T05:54:10;100981.69;;;29.71;49.96
56040;BME280;43937;41.366;2.072;2023-08-08T05:56:37;100987.81;;;28.01;55.44
56040;BME280;43937;41.366;2.072;2023-08-08T05:59:03;100994.56;;;27.27;57.51
56040;BME280;43937;41.366;2.072;2023-08-08T06:01:29;100992.38;;;26.91;59.32
56040;BME280;43937;41.366;2.072;2023-08-08T06:03:54;100992.59;;;26.85;59.47
56040;BME280;43937;41.366;2.072;2023-08-08T06:06:20;100993.06;;;26.71;59.60
56040;BME280;43937;41.366;2.072;2023-08-08T06:08:45;100992.31;;;26.81;59.82
56040;BME280;43937;41.366;2.072;2023-08-08T06:11:11;100965.16;;;26.39;60.12
56040;BME280;43937;41.366;2.072;2023-08-08T06:13:36;100969.31;;;26.69;59.31
56040;BME280;43937;41.366;2.072;2023-08-08T06:16:02;100978.63;;;30.17;50.42
56040;BME280;43937;41.366;2.072;2023-08-08T06:18:32;101018.78;;;33.23;43.96
56040;BME280;43937;41.366;2.072;2023-08-08T06:20:58;100996.06;;;32.54;43.74
56040;BME280;43937;41.366;2.072;2023-08-08T06:23:23;101013.75;;;34.48;39.95
56040;BME280;43937;41.366;2.072;2023-08-08T06:25:48;101017.97;;;36.45;36.54
56040;BME280;43937;41.366;2.072;2023-08-08T06:28:14;101021.06;;;36.96;35.73
56040;BME280;43937;41.366;2.072;2023-08-08T06:30:39;100998.41;;;37.93;33.33
56040;BME280;43937;41.366;2.072;2023-08-08T06:33:05;101011.03;;;38.80;31.51
56040;BME280;43937;41.366;2.072;2023-08-08T06:35:30;101041.25;;;40.16;29.84
56040;BME280;43937;41.366;2.072;2023-08-08T06:37:56;101032.88;;;40.35;29.27
56040;BME280;43937;41.366;2.072;2023-08-08T06:40:21;101038.78;;;39.90;30.25
56040;BME280;43937;41.366;2.072;2023-08-08T06:42:47;101038.19;;;40.77;28.29
56040;BME280;43937;41.366;2.072;2023-08-08T06:45:12;101041.69;;;40.86;28.42
56040;BME280;43937;41.366;2.072;2023-08-08T06:47:38;101047.16;;;40.91;28.61
56040;BME280;43937;41.366;2.072;2023-08-08T06:50:04;101030.75;;;42.77;26.39
56040;BME280;43937;41.366;2.072;2023-08-08T06:52:30;101045.47;;;43.67;25.11
56040;BME280;43937;41.366;2.072;2023-08-08T06:54:55;101042.91;;;43.89;24.68
56040;BME280;43937;41.366;2.072;2023-08-08T06:57:22;101052.63;;;43.81;24.33
56040;BME280;43937;41.366;2.072;2023-08-08T06:59:47;101050.44;;;43.71;24.61
56040;BME280;43937;41.366;2.072;2023-08-08T07:02:16;101049.91;;;42.73;26.15
56040;BME280;43937;41.366;2.072;2023-08-08T07:04:42;101049.16;;;42.99;25.41
56040;BME280;43937;41.366;2.072;2023-08-08T07:07:08;101054.91;;;39.61;29.72
56040;BME280;43937;41.366;2.072;2023-08-08T07:09:33;101048.19;;;38.20;31.75
56040;BME280;43937;41.366;2.072;2023-08-08T07:11:59;101049.09;;;35.84;35.71
56040;BME280;43937;41.366;2.072;2023-08-08T07:14:25;101035.72;;;34.74;37.96
56040;BME280;43937;41.366;2.072;2023-08-08T07:16:50;101017.44;;;33.35;40.40
56040;BME280;43937;41.366;2.072;2023-08-08T07:19:16;101011.72;;;32.93;41.74
56040;BME280;43937;41.366;2.072;2023-08-08T07:21:41;101038.94;;;33.30;41.80
56040;BME280;43937;41.366;2.072;2023-08-08T07:24:07;101040.34;;;35.15;37.87
56040;BME280;43937;41.366;2.072;2023-08-08T07:26:32;101056.50;;;39.34;31.18
56040;BME280;43937;41.366;2.072;2023-08-08T07:28:58;101036.47;;;41.36;27.82
56040;BME280;43937;41.366;2.072;2023-08-08T07:31:23;101044.59;;;41.65;27.34
56040;BME280;43937;41.366;2.072;2023-08-08T07:33:48;101051.53;;;42.00;27.44
56040;BME280;43937;41.366;2.072;2023-08-08T07:36:14;101056.81;;;43.60;26.01
56040;BME280;43937;41.366;2.072;2023-08-08T07:40:49;101064.31;;;44.86;24.28
56040;BME280;43937;41.366;2.072;2023-08-08T07:44:54;101070.06;;;44.86;25.03
56040;BME280;43937;41.366;2.072;2023-08-08T07:47:20;101059.38;;;45.75;23.89
56040;BME280;43937;41.366;2.072;2023-08-08T07:49:45;101068.16;;;45.00;24.88
56040;BME280;43937;41.366;2.072;2023-08-08T07:52:11;101064.44;;;45.41;24.34
56040;BME280;43937;41.366;2.072;2023-08-08T07:54:36;101062.34;;;46.63;23.42
56040;BME280;43937;41.366;2.072;2023-08-08T07:57:02;101063.06;;;44.83;25.60
56040;BME280;43937;41.366;2.072;2023-08-08T07:59:27;101058.47;;;43.38;26.45
56040;BME280;43937;41.366;2.072;2023-08-08T08:01:53;101056.38;;;42.15;28.98
56040;BME280;43937;41.366;2.072;2023-08-08T08:04:18;101058.53;;;41.67;29.65
56040;BME280;43937;41.366;2.072;2023-08-08T08:06:44;101055.56;;;39.09;33.13
56040;BME280;43937;41.366;2.072;2023-08-08T08:09:09;101043.94;;;36.90;37.37
56040;BME280;43937;41.366;2.072;2023-08-08T08:11:35;101044.97;;;35.50;40.13
56040;BME280;43937;41.366;2.072;2023-08-08T08:14:00;101011.97;;;34.75;41.13
56040;BME280;43937;41.366;2.072;2023-08-08T08:16:25;101051.38;;;33.98;43.01
56040;BME280;43937;41.366;2.072;2023-08-08T08:18:51;101021.19;;;33.71;43.97
56040;BME280;43937;41.366;2.072;2023-08-08T08:21:16;101043.44;;;33.73;44.51
56040;BME280;43937;41.366;2.072;2023-08-08T08:23:46;101036.84;;;33.22;45.76
56040;BME280;43937;41.366;2.072;2023-08-08T08:26:11;101033.75;;;33.65;45.08
56040;BME280;43937;41.366;2.072;2023-08-08T08:28:37;101021.81;;;33.27;45.89
56040;BME280;43937;41.366;2.072;2023-08-08T08:31:05;101027.72;;;32.98;47.00
56040;BME280;43937;41.366;2.072;2023-08-08T08:33:31;101019.03;;;32.61;47.49
56040;BME280;43937;41.366;2.072;2023-08-08T08:35:56;101023.72;;;38.28;36.52
56040;BME280;43937;41.366;2.072;2023-08-08T08:38:22;101035.31;;;41.53;30.88
56040;BME280;43937;41.366;2.072;2023-08-08T08:40:48;101051.31;;;42.44;29.01
56040;BME280;43937;41.366;2.072;2023-08-08T08:43:15;101055.56;;;43.58;27.66
56040;BME280;43937;41.366;2.072;2023-08-08T08:45:42;101064.84;;;42.27;29.35
56040;BME280;43937;41.366;2.072;2023-08-08T08:48:09;101063.06;;;42.39;29.31
56040;BME280;43937;41.366;2.072;2023-08-08T08:50:38;101061.50;;;38.08;35.25
56040;BME280;43937;41.366;2.072;2023-08-08T08:53:05;101035.25;;;37.13;37.08
56040;BME280;43937;41.366;2.072;2023-08-08T08:55:31;101055.94;;;36.00;39.53
56040;BME280;43937;41.366;2.072;2023-08-08T08:57:56;101025.44;;;35.97;39.01
56040;BME280;43937;41.366;2.072;2023-08-08T09:00:22;101053.75;;;37.87;35.44
56040;BME280;43937;41.366;2.072;2023-08-08T09:02:48;101069.59;;;35.81;38.67
56040;BME280;43937;41.366;2.072;2023-08-08T09:05:15;101048.25;;;35.04;40.67
56040;BME280;43937;41.366;2.072;2023-08-08T09:07:40;101048.53;;;35.25;40.18
56040;BME280;43937;41.366;2.072;2023-08-08T09:10:07;101064.72;;;34.57;42.39
56040;BME280;43937;41.366;2.072;2023-08-08T09:12:33;101064.25;;;34.05;43.50
56040;BME280;43937;41.366;2.072;2023-08-08T09:14:59;101058.69;;;33.86;44.52
56040;BME280;43937;41.366;2.072;2023-08-08T09:17:27;101041.59;;;33.68;44.45
56040;BME280;43937;41.366;2.072;2023-08-08T09:20:40;101044.06;;;33.84;44.98
56040;BME280;43937;41.366;2.072;2023-08-08T09:23:06;101065.63;;;34.07;44.07
56040;BME280;43937;41.366;2.072;2023-08-08T09:26:13;101061.53;;;33.58;45.59
56040;BME280;43937;41.366;2.072;2023-08-08T09:28:41;101055.06;;;32.97;47.18
56040;BME280;43937;41.366;2.072;2023-08-08T09:31:06;101051.94;;;33.59;45.88
56040;BME280;43937;41.366;2.072;2023-08-08T09:33:32;101055.78;;;33.36;46.85
56040;BME280;43937;41.366;2.072;2023-08-08T09:35:57;101059.50;;;32.33;48.84
56040;BME280;43937;41.366;2.072;2023-08-08T09:38:23;101062.81;;;31.25;51.90
56040;BME280;43937;41.366;2.072;2023-08-08T09:40:49;101068.38;;;31.30;53.40
56040;BME280;43937;41.366;2.072;2023-08-08T09:43:15;101056.22;;;30.82;54.78
56040;BME280;43937;41.366;2.072;2023-08-08T09:45:41;101065.69;;;30.56;55.98
56040;BME280;43937;41.366;2.072;2023-08-08T09:48:10;101060.00;;;30.22;57.82
56040;BME280;43937;41.366;2.072;2023-08-08T09:50:35;101074.25;;;30.36;57.74
56040;BME280;43937;41.366;2.072;2023-08-08T09:53:04;101044.03;;;30.18;57.46
56040;BME280;43937;41.366;2.072;2023-08-08T09:55:30;101067.38;;;30.52;57.39
56040;BME280;43937;41.366;2.072;2023-08-08T09:57:57;101063.56;;;30.38;57.36
56040;BME280;43937;41.366;2.072;2023-08-08T10:00:24;101061.50;;;30.88;56.09
56040;BME280;43937;41.366;2.072;2023-08-08T10:02:53;101071.56;;;30.94;53.63
56040;BME280;43937;41.366;2.072;2023-08-08T10:05:19;101046.09;;;30.46;53.56
56040;BME280;43937;41.366;2.072;2023-08-08T10:07:45;101070.63;;;30.70;53.10
56040;BME280;43937;41.366;2.072;2023-08-08T10:10:10;101060.66;;;30.88;52.05
56040;BME280;43937;41.366;2.072;2023-08-08T10:12:40;101080.03;;;31.47;50.83
56040;BME280;43937;41.366;2.072;2023-08-08T10:15:07;101071.34;;;31.68;50.70
56040;BME280;43937;41.366;2.072;2023-08-08T10:17:37;101070.63;;;31.81;49.38
56040;BME280;43937;41.366;2.072;2023-08-08T10:20:05;101050.88;;;31.09;51.36
56040;BME280;43937;41.366;2.072;2023-08-08T10:22:42;101080.19;;;30.69;52.43
56040;BME280;43937;41.366;2.072;2023-08-08T10:25:08;101069.56;;;30.61;53.53
56040;BME280;43937;41.366;2.072;2023-08-08T10:27:36;101046.00;;;29.62;55.53
56040;BME280;43937;41.366;2.072;2023-08-08T10:30:06;101071.34;;;30.02;55.80
56040;BME280;43937;41.366;2.072;2023-08-08T10:32:44;101067.09;;;30.04;55.59
56040;BME280;43937;41.366;2.072;2023-08-08T10:35:12;101060.88;;;30.18;55.00
56040;BME280;43937;41.366;2.072;2023-08-08T10:37:38;101070.41;;;30.17;55.66
56040;BME280;43937;41.366;2.072;2023-08-08T10:40:04;101071.94;;;30.43;55.67
56040;BME280;43937;41.366;2.072;2023-08-08T10:42:33;101055.78;;;30.20;55.76
56040;BME280;43937;41.366;2.072;2023-08-08T10:45:08;101062.22;;;30.65;54.46
56040;BME280;43937;41.366;2.072;2023-08-08T10:47:35;101049.69;;;31.15;53.55
56040;BME280;43937;41.366;2.072;2023-08-08T10:50:05;101068.56;;;32.11;51.36
56040;BME280;43937;41.366;2.072;2023-08-08T10:55:21;101061.41;;;32.00;51.68
56040;BME280;43937;41.366;2.072;2023-08-08T11:00:31;101052.50;;;32.30;51.09
56040;BME280;43937;41.366;2.072;2023-08-08T11:02:58;101053.88;;;33.31;48.13
56040;BME280;43937;41.366;2.072;2023-08-08T11:05:27;101027.19;;;33.56;47.72
56040;BME280;43937;41.366;2.072;2023-08-08T11:07:53;101018.16;;;32.80;48.91
56040;BME280;43937;41.366;2.072;2023-08-08T11:10:20;101043.00;;;32.45;49.83
56040;BME280;43937;41.366;2.072;2023-08-08T11:13:02;101035.84;;;31.72;52.11
56040;BME280;43937;41.366;2.072;2023-08-08T11:15:28;101008.75;;;31.76;51.59
56040;BME280;43937;41.366;2.072;2023-08-08T11:17:57;101035.59;;;31.92;51.61
56040;BME280;43937;41.366;2.072;2023-08-08T11:20:24;101024.97;;;31.84;51.68
56040;BME280;43937;41.366;2.072;2023-08-08T11:24:34;101013.19;;;31.10;53.15
56040;BME280;43937;41.366;2.072;2023-08-08T11:27:00;101027.03;;;31.79;51.52
56040;BME280;43937;41.366;2.072;2023-08-08T11:29:26;101037.59;;;32.11;50.81
56040;BME280;43937;41.366;2.072;2023-08-08T11:31:56;101033.47;;;31.36;53.04
56040;BME280;43937;41.366;2.072;2023-08-08T11:34:22;101031.41;;;30.89;54.19
56040;BME280;43937;41.366;2.072;2023-08-08T11:36:47;101022.47;;;30.87;54.90
56040;BME280;43937;41.366;2.072;2023-08-08T11:39:13;101026.19;;;31.30;53.41
56040;BME280;43937;41.366;2.072;2023-08-08T11:41:40;101007.88;;;31.09;54.40
56040;BME280;43937;41.366;2.072;2023-08-08T11:44:49;101018.38;;;31.27;54.12
56040;BME280;43937;41.366;2.072;2023-08-08T11:47:15;101020.56;;;31.78;51.90
56040;BME280;43937;41.366;2.072;2023-08-08T11:49:41;101019.19;;;31.03;55.15
56040;BME280;43937;41.366;2.072;2023-08-08T11:52:09;100996.81;;;30.93;54.27
56040;BME280;43937;41.366;2.072;2023-08-08T11:54:38;101003.84;;;31.20;54.48
56040;BME280;43937;41.366;2.072;2023-08-08T11:57:04;100980.00;;;31.79;52.86
56040;BME280;43937;41.366;2.072;2023-08-08T11:59:31;100976.94;;;32.00;52.29
56040;BME280;43937;41.366;2.072;2023-08-08T12:01:56;101000.59;;;31.99;52.25
56040;BME280;43937;41.366;2.072;2023-08-08T12:04:22;100994.09;;;31.98;52.01
56040;BME280;43937;41.366;2.072;2023-08-08T12:06:48;100991.78;;;31.62;52.78
56040;BME280;43937;41.366;2.072;2023-08-08T12:09:13;100988.34;;;32.08;52.14
56040;BME280;43937;41.366;2.072;2023-08-08T12:12:44;100991.81;;;32.38;51.27
56040;BME280;43937;41.366;2.072;2023-08-08T12:15:11;100985.53;;;32.60;50.92
56040;BME280;43937;41.366;2.072;2023-08-08T12:17:37;100982.34;;;32.94;49.87
56040;BME280;43937;41.366;2.072;2023-08-08T12:20:07;100964.44;;;33.04;49.56
56040;BME280;43937;41.366;2.072;2023-08-08T12:22:34;100982.59;;;32.98;50.74
56040;BME280;43937;41.366;2.072;2023-08-08T12:25:00;100962.91;;;32.65;50.90
56040;BME280;43937;41.366;2.072;2023-08-08T12:27:25;100971.22;;;33.30;49.56
56040;BME280;43937;41.366;2.072;2023-08-08T12:29:57;100983.66;;;33.71;49.06
56040;BME280;43937;41.366;2.072;2023-08-08T12:32:28;100980.34;;;34.28;47.14
56040;BME280;43937;41.366;2.072;2023-08-08T12:34:57;100988.16;;;34.98;45.38
56040;BME280;43937;41.366;2.072;2023-08-08T12:37:23;100957.22;;;34.71;45.97
56040;BME280;43937;41.366;2.072;2023-08-08T12:39:49;100973.50;;;34.96;45.19
56040;BME280;43937;41.366;2.072;2023-08-08T12:42:38;100972.94;;;35.65;43.77
56040;BME280;43937;41.366;2.072;2023-08-08T12:45:05;100973.63;;;35.22;44.62
56040;BME280;43937;41.366;2.072;2023-08-08T12:47:33;100961.59;;;34.85;45.30
56040;BME280;43937;41.366;2.072;2023-08-08T12:50:04;100976.25;;;35.19;43.69
56040;BME280;43937;41.366;2.072;2023-08-08T12:52:46;100973.41;;;35.67;43.59
56040;BME280;43937;41.366;2.072;2023-08-08T12:55:11;100981.13;;;35.84;43.08
56040;BME280;43937;41.366;2.072;2023-08-08T12:57:37;100969.16;;;34.45;45.57
56040;BME280;43937;41.366;2.072;2023-08-08T13:00:03;100962.88;;;34.03;46.09
56040;BME280;43937;41.366;2.072;2023-08-08T13:02:29;100959.09;;;33.94;46.43
56040;BME280;43937;41.366;2.072;2023-08-08T13:04:54;100958.78;;;34.54;44.54
56040;BME280;43937;41.366;2.072;2023-08-08T13:07:20;100955.00;;;34.00;45.83
56040;BME280;43937;41.366;2.072;2023-08-08T13:09:45;100954.00;;;33.96;46.18
56040;BME280;43937;41.366;2.072;2023-08-08T13:12:11;100921.09;;;33.78;46.53